Time;durP1;ratioP1;P1;durP2;ratioP2;P2;SDS_P1;SDS_P2;PMS_P1;PMS_P2;Temp;Humidity;BMP_temperature;BMP_pressure;BME280_temperature;BME280_humidity;BME280_pressure;Samples;Min_cycle;Max_cycle;Signal;HPM_P1;HPM_P2
2023/10/13 00:01:55;;;;;;;0.22;0.22;;;;;;;;;;4961115;28;20046;-85
2023/10/13 00:04:24;;;;;;;0.98;0.63;;;;;;;;;;4962007;28;20041;-83
2023/10/13 00:06:57;;;;;;;0.40;0.20;;;;;;;;;;4977206;28;20046;-86
2023/10/13 00:09:32;;;;;;;0.95;0.50;;;;;;;;;;4981692;28;20046;-84
2023/10/13 00:11:58;;;;;;;0.43;0.30;;;;;;;;;;4979840;28;20047;-84
2023/10/13 00:14:33;;;;;;;0.20;0.10;;;;;;;;;;4977539;28;20042;-84
2023/10/13 00:17:03;;;;;;;0.80;0.52;;;;;;;;;;4977050;28;20057;-83
2023/10/13 00:19:46;;;;;;;0.25;0.25;;;;;;;;;;4973306;28;20050;-86
2023/10/13 00:22:16;;;;;;;0.25;0.13;;;;;;;;;;4976449;28;20152;-85
2023/10/13 00:24:43;;;;;;;1.48;0.80;;;;;;;;;;4977400;28;20042;-85
2023/10/13 00:30:20;;;;;;;0.20;0.10;;;;;;;;;;4972154;28;20065;-85
2023/10/13 00:32:42;;;;;;;0.85;0.57;;;;;;;;;;4981493;28;20510;-84
2023/10/13 00:35:24;;;;;;;0.20;0.20;;;;;;;;;;4980944;28;20041;-83
2023/10/13 00:37:53;;;;;;;0.38;0.38;;;;;;;;;;4964520;28;20411;-86
2023/10/13 00:43:32;;;;;;;4.97;2.33;;;;;;;;;;4981803;28;20050;-84
2023/10/13 00:45:57;;;;;;;0.32;0.30;;;;;;;;;;4979701;28;20093;-82
2023/10/13 00:48:32;;;;;;;0.20;0.10;;;;;;;;;;4981581;28;20077;-83
2023/10/13 00:53:44;;;;;;;1.23;0.43;;;;;;;;;;4979369;28;20098;-82
2023/10/13 00:56:21;;;;;;;0.20;0.15;;;;;;;;;;4982049;28;20038;-83
2023/10/13 00:58:50;;;;;;;0.45;0.45;;;;;;;;;;4995433;28;20406;-84
2023/10/13 01:01:21;;;;;;;1.00;0.65;;;;;;;;;;4965660;28;20042;-85
2023/10/13 01:04:01;;;;;;;0.52;0.30;;;;;;;;;;4989528;28;20047;-84
2023/10/13 01:06:28;;;;;;;0.20;0.13;;;;;;;;;;4998067;28;20038;-83
2023/10/13 01:09:10;;;;;;;0.20;0.20;;;;;;;;;;4999215;28;20037;-87
2023/10/13 01:11:36;;;;;;;0.20;0.10;;;;;;;;;;4980552;28;20110;-84
2023/10/13 01:14:04;;;;;;;0.30;0.30;;;;;;;;;;4996435;28;20026;-84
2023/10/13 01:16:30;;;;;;;0.57;0.57;;;;;;;;;;4979661;28;20038;-82
2023/10/13 01:18:59;;;;;;;0.32;0.32;;;;;;;;;;4999970;28;20066;-82
2023/10/13 01:21:29;;;;;;;0.20;0.10;;;;;;;;;;4980427;28;20046;-82
2023/10/13 01:23:55;;;;;;;0.55;0.55;;;;;;;;;;4990673;28;20533;-84
2023/10/13 01:26:26;;;;;;;0.20;0.10;;;;;;;;;;4978391;28;20045;-80
2023/10/13 01:28:54;;;;;;;0.20;0.13;;;;;;;;;;4983832;28;20042;-84
2023/10/13 01:31:30;;;;;;;0.68;0.22;;;;;;;;;;4966878;28;20109;-84
2023/10/13 01:33:59;;;;;;;0.20;0.20;;;;;;;;;;4967547;28;20049;-82
2023/10/13 01:36:28;;;;;;;0.68;0.60;;;;;;;;;;4984128;28;20085;-84
2023/10/13 01:38:54;;;;;;;1.23;0.30;;;;;;;;;;4967409;28;20125;-81
2023/10/13 01:41:23;;;;;;;0.40;0.40;;;;;;;;;;4965377;28;20052;-83
2023/10/13 01:43:50;;;;;;;0.73;0.30;;;;;;;;;;4967691;28;20046;-81
2023/10/13 01:46:19;;;;;;;0.28;0.28;;;;;;;;;;4981448;28;20041;-84
2023/10/13 01:48:46;;;;;;;0.28;0.25;;;;;;;;;;4978912;28;20043;-83
2023/10/13 01:51:12;;;;;;;1.88;0.32;;;;;;;;;;4982241;28;20050;-81
2023/10/13 01:53:38;;;;;;;0.20;0.10;;;;;;;;;;4959218;28;20038;-80
2023/10/13 01:56:10;;;;;;;0.40;0.30;;;;;;;;;;4967135;28;20550;-81
2023/10/13 01:58:37;;;;;;;0.52;0.40;;;;;;;;;;4980709;28;20038;-81
2023/10/13 02:01:07;;;;;;;0.20;0.10;;;;;;;;;;4982944;28;20553;-84
2023/10/13 02:03:33;;;;;;;0.35;0.35;;;;;;;;;;4982405;28;20105;-84
2023/10/13 02:06:04;;;;;;;0.20;0.10;;;;;;;;;;4970577;28;20089;-82
2023/10/13 02:08:30;;;;;;;0.20;0.10;;;;;;;;;;4965184;28;20050;-80
2023/10/13 02:10:57;;;;;;;0.20;0.20;;;;;;;;;;4983070;28;20474;-81
2023/10/13 02:13:25;;;;;;;0.45;0.45;;;;;;;;;;4980490;28;20062;-81
2023/10/13 02:16:01;;;;;;;0.30;0.30;;;;;;;;;;4980359;28;20431;-79
2023/10/13 02:18:27;;;;;;;0.60;0.40;;;;;;;;;;4967621;28;20489;-81
2023/10/13 02:21:04;;;;;;;0.20;0.10;;;;;;;;;;4960416;28;20537;-87
2023/10/13 02:23:30;;;;;;;0.20;0.20;;;;;;;;;;4968114;28;20578;-83
2023/10/13 02:26:10;;;;;;;0.20;0.10;;;;;;;;;;4981545;28;20049;-83
2023/10/13 02:28:36;;;;;;;0.32;0.28;;;;;;;;;;4964962;28;20159;-84
2023/10/13 02:31:03;;;;;;;1.55;1.45;;;;;;;;;;4981084;28;20070;-84
2023/10/13 02:33:29;;;;;;;0.40;0.22;;;;;;;;;;4981663;28;20042;-82
2023/10/13 02:35:59;;;;;;;0.20;0.10;;;;;;;;;;4966473;28;20044;-81
2023/10/13 02:38:33;;;;;;;0.90;0.73;;;;;;;;;;4965380;28;20620;-81
2023/10/13 02:41:05;;;;;;;0.52;0.52;;;;;;;;;;4966129;28;20041;-81
2023/10/13 02:43:33;;;;;;;0.68;0.68;;;;;;;;;;4981481;28;20047;-81
2023/10/13 02:45:59;;;;;;;0.40;0.40;;;;;;;;;;4967513;28;20064;-82
2023/10/13 02:48:30;;;;;;;0.20;0.20;;;;;;;;;;4969868;28;20038;-81
2023/10/13 02:50:57;;;;;;;0.55;0.55;;;;;;;;;;4979209;28;20101;-82
2023/10/13 02:53:28;;;;;;;0.20;0.10;;;;;;;;;;4979300;28;20066;-84
2023/10/13 02:56:04;;;;;;;1.27;0.70;;;;;;;;;;4980341;28;20951;-81
2023/10/13 02:58:38;;;;;;;0.22;0.22;;;;;;;;;;4969651;28;20712;-81
2023/10/13 03:01:16;;;;;;;0.20;0.00;;;;;;;;;;4965926;28;20624;-81
2023/10/13 03:03:43;;;;;;;0.30;0.30;;;;;;;;;;4961749;28;20043;-81
2023/10/13 03:06:11;;;;;;;0.20;0.10;;;;;;;;;;4964110;28;20043;-81
2023/10/13 03:08:39;;;;;;;0.30;0.30;;;;;;;;;;4983790;28;20090;-81
2023/10/13 03:11:09;;;;;;;0.20;0.10;;;;;;;;;;4966277;28;20035;-81
2023/10/13 03:13:36;;;;;;;0.50;0.43;;;;;;;;;;4963067;28;20402;-80
2023/10/13 03:16:04;;;;;;;0.30;0.30;;;;;;;;;;4981022;28;20038;-83
2023/10/13 03:18:33;;;;;;;0.85;0.85;;;;;;;;;;4981222;28;20046;-83
2023/10/13 03:21:02;;;;;;;0.20;0.03;;;;;;;;;;4957964;28;20264;-82
2023/10/13 03:23:28;;;;;;;0.25;0.25;;;;;;;;;;4960964;28;20034;-82
2023/10/13 03:25:55;;;;;;;0.85;0.77;;;;;;;;;;4977526;28;20041;-84
2023/10/13 03:28:25;;;;;;;1.05;0.52;;;;;;;;;;4981318;28;20075;-80
2023/10/13 03:30:55;;;;;;;0.40;0.40;;;;;;;;;;4963655;28;20050;-82
2023/10/13 03:33:27;;;;;;;0.20;0.10;;;;;;;;;;4980531;28;20529;-82
2023/10/13 03:36:05;;;;;;;0.30;0.20;;;;;;;;;;4966472;28;20053;-82
2023/10/13 03:38:36;;;;;;;0.75;0.22;;;;;;;;;;4979672;28;20061;-83
2023/10/13 03:41:18;;;;;;;0.35;0.35;;;;;;;;;;4965152;28;20121;-84
2023/10/13 03:43:45;;;;;;;0.20;0.17;;;;;;;;;;4965814;28;20053;-84
2023/10/13 03:46:11;;;;;;;0.20;0.17;;;;;;;;;;4961511;28;20050;-84
2023/10/13 03:48:54;;;;;;;0.20;0.20;;;;;;;;;;4975767;28;20046;-83
2023/10/13 03:51:30;;;;;;;0.68;0.47;;;;;;;;;;4961911;28;20565;-81
2023/10/13 03:53:56;;;;;;;0.50;0.40;;;;;;;;;;4961363;28;20073;-84
2023/10/13 03:56:27;;;;;;;0.40;0.40;;;;;;;;;;4962817;28;20042;-85
2023/10/13 03:58:54;;;;;;;0.30;0.15;;;;;;;;;;4976888;28;20081;-85
2023/10/13 04:01:31;;;;;;;0.20;0.20;;;;;;;;;;4978406;28;20092;-83
2023/10/13 04:04:02;;;;;;;0.20;0.20;;;;;;;;;;4962620;28;20043;-82
2023/10/13 04:17:27;;;;;;;0.20;0.10;;;;;;;;;;4994380;28;20046;-84
2023/10/13 04:30:57;;;;;;;0.35;0.35;;;;;;;;;;4979810;28;20046;-85
2023/10/13 04:39:09;;;;;;;0.20;0.10;;;;;;;;;;4981548;28;20136;-84
2023/10/13 04:41:39;;;;;;;0.65;0.43;;;;;;;;;;4962538;28;20070;-83
2023/10/13 04:44:48;;;;;;;0.35;0.30;;;;;;;;;;4964872;28;20053;-84
2023/10/13 04:47:17;;;;;;;0.35;0.25;;;;;;;;;;4976752;28;20085;-84
2023/10/13 05:47:22;;;;;;;0.20;0.10;;;;;;;;;;5004683;28;20502;-85
2023/10/13 06:30:17;;;;;;;0.20;0.00;;;;;;;;;;5019930;28;20494;-87
2023/10/13 06:32:46;;;;;;;0.28;0.28;;;;;;;;;;5016874;28;20056;-83
2023/10/13 06:35:24;;;;;;;0.30;0.20;;;;;;;;;;4999958;28;20506;-85
2023/10/13 06:37:51;;;;;;;0.20;0.08;;;;;;;;;;5005820;28;20061;-83
2023/10/13 06:40:33;;;;;;;0.20;0.00;;;;;;;;;;5003162;28;20136;-86
2023/10/13 06:45:56;;;;;;;0.20;0.20;;;;;;;;;;5001065;28;20390;-84
2023/10/13 06:48:24;;;;;;;0.30;0.30;;;;;;;;;;5003796;28;20180;-84
2023/10/13 06:50:56;;;;;;;0.20;0.05;;;;;;;;;;4999244;28;20053;-85
2023/10/13 06:53:24;;;;;;;0.20;0.05;;;;;;;;;;5004592;28;20252;-84
2023/10/13 06:55:58;;;;;;;0.20;0.17;;;;;;;;;;4998327;28;20121;-85
2023/10/13 06:58:25;;;;;;;0.73;0.40;;;;;;;;;;5002716;28;20041;-86
2023/10/13 07:00:55;;;;;;;0.20;0.10;;;;;;;;;;4987227;28;20269;-84
2023/10/13 07:03:22;;;;;;;0.20;0.10;;;;;;;;;;5006200;28;20038;-85
2023/10/13 07:05:58;;;;;;;0.20;0.10;;;;;;;;;;5020268;28;20517;-86
2023/10/13 07:08:25;;;;;;;0.20;0.10;;;;;;;;;;5003947;28;20040;-86
2023/10/13 07:11:02;;;;;;;0.20;0.00;;;;;;;;;;4984539;28;20030;-84
2023/10/13 07:13:31;;;;;;;0.20;0.10;;;;;;;;;;5004159;28;20049;-85
2023/10/13 07:16:05;;;;;;;0.20;0.10;;;;;;;;;;5002891;28;20069;-85
2023/10/13 07:18:42;;;;;;;0.20;0.08;;;;;;;;;;5003709;28;20387;-85
2023/10/13 07:21:11;;;;;;;0.20;0.10;;;;;;;;;;4985882;28;20410;-85
2023/10/13 07:23:39;;;;;;;0.20;0.10;;;;;;;;;;4986691;28;20044;-85
2023/10/13 07:26:08;;;;;;;0.20;0.10;;;;;;;;;;5002408;28;20128;-84
2023/10/13 07:28:43;;;;;;;0.20;0.08;;;;;;;;;;5002758;28;20037;-86
2023/10/13 07:31:16;;;;;;;0.25;0.15;;;;;;;;;;4986356;28;20108;-86
2023/10/13 07:33:42;;;;;;;0.20;0.10;;;;;;;;;;5004286;28;20044;-85
2023/10/13 07:36:28;;;;;;;0.20;0.10;;;;;;;;;;4988476;28;20030;-86
2023/10/13 07:42:05;;;;;;;0.30;0.30;;;;;;;;;;4944492;28;20078;-86
2023/10/13 07:44:45;;;;;;;0.20;0.10;;;;;;;;;;4978526;28;20509;-85
2023/10/13 07:47:11;;;;;;;0.20;0.10;;;;;;;;;;4984932;28;20050;-84
2023/10/13 07:49:39;;;;;;;0.20;0.20;;;;;;;;;;4984463;28;20079;-86
2023/10/13 07:52:36;;;;;;;0.57;0.57;;;;;;;;;;5002555;28;20046;-88
2023/10/13 07:55:11;;;;;;;0.43;0.08;;;;;;;;;;5002778;28;20042;-87
2023/10/13 07:57:53;;;;;;;0.20;0.20;;;;;;;;;;4987049;28;20061;-86
2023/10/13 08:08:35;;;;;;;0.20;0.10;;;;;;;;;;5004038;28;20058;-88
2023/10/13 08:11:08;;;;;;;0.20;0.00;;;;;;;;;;5001606;28;20477;-90
2023/10/13 08:13:39;;;;;;;0.20;0.10;;;;;;;;;;5002835;28;20628;-86
2023/10/13 08:16:09;;;;;;;0.20;0.10;;;;;;;;;;4985838;28;20128;-87
2023/10/13 08:18:36;;;;;;;0.20;0.10;;;;;;;;;;5001743;28;20042;-87
2023/10/13 08:21:05;;;;;;;0.20;0.10;;;;;;;;;;4999392;28;20049;-86
2023/10/13 08:32:14;;;;;;;0.20;0.05;;;;;;;;;;5003867;28;20046;-86
2023/10/13 08:37:28;;;;;;;0.20;0.20;;;;;;;;;;5008325;28;20044;-85
2023/10/13 09:12:35;;;;;;;0.20;0.10;;;;;;;;;;5009787;28;20048;-84
2023/10/13 09:20:32;;;;;;;0.20;0.10;;;;;;;;;;5008946;28;20046;-86
2023/10/13 09:23:12;;;;;;;0.30;0.17;;;;;;;;;;4996667;28;20033;-85
2023/10/13 09:28:31;;;;;;;0.20;0.05;;;;;;;;;;5007533;28;20044;-85
2023/10/13 09:30:59;;;;;;;;;;;;;;;;;;5005377;28;20064;-86
2023/10/13 09:33:32;;;;;;;1.17;0.98;;;;;;;;;;4991568;28;19929;-85
2023/10/13 09:36:04;;;;;;;0.65;0.55;;;;;;;;;;5006479;28;20038;-86
2023/10/13 09:38:40;;;;;;;0.25;0.20;;;;;;;;;;5011042;28;20047;-84
2023/10/13 09:41:26;;;;;;;1.13;1.05;;;;;;;;;;4991143;28;20041;-91
2023/10/13 09:43:57;;;;;;;0.38;0.38;;;;;;;;;;4990206;28;20029;-86
2023/10/13 09:46:34;;;;;;;0.20;0.10;;;;;;;;;;5004773;28;20038;-87
2023/10/13 09:49:33;;;;;;;1.05;0.95;;;;;;;;;;5005248;28;20087;-87
2023/10/13 09:52:04;;;;;;;1.40;0.40;;;;;;;;;;4987162;28;20181;-87
2023/10/13 09:54:36;;;;;;;0.20;0.15;;;;;;;;;;5003343;28;20486;-87
2023/10/13 09:57:17;;;;;;;0.20;0.10;;;;;;;;;;4987443;28;20037;-87
2023/10/13 09:59:56;;;;;;;0.20;0.10;;;;;;;;;;5005797;28;20053;-87
2023/10/13 10:02:25;;;;;;;0.30;0.20;;;;;;;;;;5004544;28;20097;-86
2023/10/13 10:08:04;;;;;;;0.20;0.10;;;;;;;;;;4986918;28;20068;-86
2023/10/13 10:10:56;;;;;;;0.25;0.20;;;;;;;;;;4970352;28;20053;-86
2023/10/13 10:14:15;;;;;;;0.20;0.10;;;;;;;;;;4998170;28;20056;-85
2023/10/13 10:17:08;;;;;;;0.20;0.17;;;;;;;;;;4970866;28;20112;-85
2023/10/13 10:19:35;;;;;;;0.65;0.20;;;;;;;;;;5000506;28;20046;-85
2023/10/13 10:22:08;;;;;;;0.50;0.40;;;;;;;;;;4988982;28;20819;-86
2023/10/13 10:24:38;;;;;;;0.20;0.10;;;;;;;;;;4989282;28;20045;-88
2023/10/13 10:27:07;;;;;;;0.40;0.40;;;;;;;;;;4990960;28;20038;-85
2023/10/13 10:29:34;;;;;;;0.43;0.35;;;;;;;;;;5005080;28;20168;-85
2023/10/13 10:32:15;;;;;;;0.20;0.20;;;;;;;;;;5006602;28;20069;-85
2023/10/13 10:34:41;;;;;;;0.32;0.10;;;;;;;;;;5006269;28;20049;-84
2023/10/13 10:37:19;;;;;;;0.20;0.10;;;;;;;;;;5006086;28;20041;-86
2023/10/13 10:39:45;;;;;;;1.27;0.47;;;;;;;;;;5007200;28;20525;-86
2023/10/13 10:42:15;;;;;;;0.75;0.45;;;;;;;;;;4989401;28;20502;-84
2023/10/13 10:45:02;;;;;;;0.20;0.03;;;;;;;;;;5013042;28;20046;-88
2023/10/13 10:47:37;;;;;;;0.80;0.45;;;;;;;;;;4993021;28;20052;-86
2023/10/13 10:50:49;;;;;;;0.20;0.10;;;;;;;;;;5005760;28;20050;-86
2023/10/13 10:52:57;;;;;;;0.43;0.43;;;;;;;;;;4995938;28;20049;-86
2023/10/13 10:55:30;;;;;;;0.20;0.15;;;;;;;;;;5006896;28;20033;-87
2023/10/13 10:58:30;;;;;;;0.95;0.50;;;;;;;;;;4991097;28;20116;-86
2023/10/13 11:01:12;;;;;;;0.20;0.15;;;;;;;;;;4990022;28;20041;-83
2023/10/13 11:03:41;;;;;;;;;;;;;;;;;;5004929;28;20081;-84
2023/10/13 11:06:29;;;;;;;0.20;0.20;;;;;;;;;;5002990;28;19917;-88
2023/10/13 11:11:57;;;;;;;0.20;0.10;;;;;;;;;;5004525;28;20049;-84
2023/10/13 11:14:38;;;;;;;0.20;0.13;;;;;;;;;;5005740;28;20041;-87
2023/10/13 11:17:21;;;;;;;0.60;0.47;;;;;;;;;;5008805;28;20525;-84
2023/10/13 11:22:47;;;;;;;1.85;0.73;;;;;;;;;;4986593;28;20408;-84
2023/10/13 11:25:29;;;;;;;0.20;0.20;;;;;;;;;;4988645;28;20034;-86
2023/10/13 11:28:06;;;;;;;;;;;;;;;;;;5006739;28;20046;-85
2023/10/13 11:33:08;;;;;;;0.20;0.10;;;;;;;;;;5001736;28;20038;-85
2023/10/13 11:35:57;;;;;;;0.22;0.20;;;;;;;;;;5006557;28;20448;-84
2023/10/13 11:41:15;;;;;;;7.30;1.10;;;;;;;;;;5005987;28;20037;-87
2023/10/13 11:49:08;;;;;;;0.60;0.60;;;;;;;;;;5006665;28;20052;-85
2023/10/13 11:51:38;;;;;;;0.20;0.10;;;;;;;;;;5000779;28;20551;-87
2023/10/13 11:54:04;;;;;;;0.80;0.77;;;;;;;;;;5006329;28;20410;-85
2023/10/13 11:56:30;;;;;;;0.98;0.60;;;;;;;;;;4986968;28;20038;-84
2023/10/13 11:59:01;;;;;;;0.75;0.75;;;;;;;;;;5003883;28;20396;-83
2023/10/13 12:07:19;;;;;;;0.85;0.70;;;;;;;;;;5005740;28;20296;-84
2023/10/13 12:12:53;;;;;;;0.30;0.30;;;;;;;;;;5005886;28;20045;-87
2023/10/13 12:15:25;;;;;;;0.25;0.17;;;;;;;;;;4987677;28;20042;-84
2023/10/13 12:17:51;;;;;;;0.60;0.57;;;;;;;;;;4988718;28;20077;-85
2023/10/13 12:20:18;;;;;;;0.35;0.30;;;;;;;;;;4989685;28;20042;-87
2023/10/13 12:22:54;;;;;;;1.58;1.48;;;;;;;;;;5004148;28;20038;-86
2023/10/13 12:25:44;;;;;;;0.63;0.40;;;;;;;;;;4988999;28;20496;-87
2023/10/13 12:28:18;;;;;;;0.40;0.40;;;;;;;;;;5005452;28;20513;-89
2023/10/13 12:30:57;;;;;;;1.00;0.55;;;;;;;;;;5006838;28;20045;-86
2023/10/13 12:50:12;;;;;;;0.45;0.40;;;;;;;;;;5007963;28;20042;-85
2023/10/13 12:52:45;;;;;;;0.93;0.77;;;;;;;;;;5006359;28;20054;-84
2023/10/13 12:55:38;;;;;;;0.20;0.10;;;;;;;;;;5007227;28;20124;-87
2023/10/13 12:58:10;;;;;;;0.30;0.30;;;;;;;;;;5024889;28;20460;-85
2023/10/13 13:00:48;;;;;;;1.38;0.80;;;;;;;;;;4983717;28;20061;-86
2023/10/13 13:03:28;;;;;;;0.50;0.45;;;;;;;;;;5007753;28;20045;-84
2023/10/13 13:06:24;;;;;;;0.32;0.30;;;;;;;;;;5005671;28;20054;-85
2023/10/13 13:08:51;;;;;;;0.57;0.52;;;;;;;;;;5005575;28;20383;-86
2023/10/13 13:11:23;;;;;;;0.20;0.20;;;;;;;;;;4990729;28;20050;-86
2023/10/13 13:13:49;;;;;;;0.20;0.20;;;;;;;;;;5008135;28;20548;-85
2023/10/13 13:16:30;;;;;;;0.40;0.30;;;;;;;;;;5008958;28;20030;-83
2023/10/13 13:18:57;;;;;;;0.68;0.50;;;;;;;;;;5005432;28;20138;-85
2023/10/13 13:21:38;;;;;;;3.03;0.93;;;;;;;;;;4989230;28;20129;-87
2023/10/13 13:24:10;;;;;;;0.20;0.20;;;;;;;;;;4993146;28;20038;-86
2023/10/13 13:26:40;;;;;;;0.65;0.65;;;;;;;;;;5006942;28;20042;-84
2023/10/13 13:29:10;;;;;;;1.38;1.27;;;;;;;;;;5007474;28;20046;-88
2023/10/13 13:32:00;;;;;;;0.50;0.50;;;;;;;;;;5008444;28;20041;-87
2023/10/13 13:34:31;;;;;;;0.20;0.10;;;;;;;;;;5006179;28;20042;-84
2023/10/13 13:37:00;;;;;;;0.95;0.65;;;;;;;;;;4991117;28;20030;-81
2023/10/13 13:39:30;;;;;;;0.30;0.22;;;;;;;;;;4994774;28;20045;-84
2023/10/13 13:42:02;;;;;;;0.20;0.13;;;;;;;;;;5008915;28;20097;-87
2023/10/13 13:44:35;;;;;;;0.63;0.52;;;;;;;;;;5009817;28;20048;-86
2023/10/13 13:47:13;;;;;;;0.70;0.60;;;;;;;;;;4994044;28;20049;-86
2023/10/13 13:49:51;;;;;;;0.98;0.63;;;;;;;;;;5001923;28;20041;-88
2023/10/13 13:52:45;;;;;;;0.52;0.25;;;;;;;;;;5006159;28;20121;-84
2023/10/13 13:55:17;;;;;;;0.77;0.52;;;;;;;;;;5006063;28;20037;-85
2023/10/13 13:57:44;;;;;;;0.33;0.30;;;;;;;;;;4985856;28;20069;-85
2023/10/13 14:03:12;;;;;;;0.20;0.10;;;;;;;;;;5004104;28;20434;-87
2023/10/13 14:05:50;;;;;;;0.20;0.10;;;;;;;;;;4990534;28;20057;-86
2023/10/13 14:08:28;;;;;;;0.30;0.30;;;;;;;;;;5003470;28;20045;-88
2023/10/13 14:11:13;;;;;;;0.38;0.35;;;;;;;;;;5007259;28;20042;-85
2023/10/13 14:16:37;;;;;;;0.25;0.20;;;;;;;;;;5004815;28;20073;-86
2023/10/13 14:19:07;;;;;;;0.20;0.10;;;;;;;;;;4991683;28;20033;-85
2023/10/13 14:21:39;;;;;;;0.95;0.73;;;;;;;;;;4988009;28;20033;-85
2023/10/13 14:24:14;;;;;;;0.38;0.38;;;;;;;;;;5007218;28;20041;-87
2023/10/13 14:26:43;;;;;;;3.30;0.95;;;;;;;;;;5007868;28;20125;-88
2023/10/13 14:29:14;;;;;;;0.52;0.47;;;;;;;;;;5005108;28;20052;-84
2023/10/13 14:31:41;;;;;;;0.65;0.65;;;;;;;;;;5006338;28;20037;-86
2023/10/13 14:34:08;;;;;;;1.85;0.60;;;;;;;;;;4989542;28;20557;-83
2023/10/13 14:36:40;;;;;;;0.20;0.13;;;;;;;;;;5002682;28;20042;-85
2023/10/13 14:39:09;;;;;;;0.20;0.10;;;;;;;;;;5005062;28;20503;-85
2023/10/13 14:41:41;;;;;;;0.28;0.20;;;;;;;;;;4988045;28;20542;-87
2023/10/13 14:44:12;;;;;;;0.88;0.88;;;;;;;;;;4988320;28;20088;-85
2023/10/13 14:46:47;;;;;;;0.20;0.10;;;;;;;;;;5007343;28;20570;-87
2023/10/13 14:49:18;;;;;;;0.20;0.15;;;;;;;;;;5000664;28;20038;-86
2023/10/13 14:51:44;;;;;;;0.27;0.20;;;;;;;;;;5006211;28;20042;-85
2023/10/13 14:54:14;;;;;;;0.82;0.82;;;;;;;;;;5005015;28;20040;-87
2023/10/13 14:56:43;;;;;;;0.30;0.30;;;;;;;;;;4991008;28;20034;-82
2023/10/13 14:59:16;;;;;;;0.50;0.50;;;;;;;;;;4983880;28;20033;-86
2023/10/13 15:01:43;;;;;;;1.27;1.17;;;;;;;;;;4980745;28;20072;-85
2023/10/13 15:04:37;;;;;;;2.33;1.55;;;;;;;;;;4985241;28;20476;-88
2023/10/13 15:07:06;;;;;;;1.05;0.28;;;;;;;;;;5001372;28;20029;-86
2023/10/13 15:09:35;;;;;;;0.40;0.40;;;;;;;;;;4986681;28;20052;-86
2023/10/13 15:12:10;;;;;;;1.85;0.93;;;;;;;;;;5003949;28;20046;-85
2023/10/13 15:14:42;;;;;;;1.27;0.90;;;;;;;;;;4981327;28;20040;-85
2023/10/13 15:17:15;;;;;;;0.28;0.28;;;;;;;;;;4983359;28;20046;-84
2023/10/13 15:20:10;;;;;;;0.40;0.30;;;;;;;;;;4996450;28;20520;-89
2023/10/13 15:22:39;;;;;;;0.20;0.20;;;;;;;;;;5002742;28;20437;-83
2023/10/13 15:28:30;;;;;;;0.60;0.35;;;;;;;;;;5001204;28;20332;-85
2023/10/13 15:31:27;;;;;;;0.43;0.43;;;;;;;;;;5001814;28;20030;-88
2023/10/13 15:34:00;;;;;;;0.30;0.30;;;;;;;;;;5001137;28;20490;-84
2023/10/13 15:36:42;;;;;;;0.70;0.68;;;;;;;;;;5001767;28;20041;-86
2023/10/13 15:39:23;;;;;;;0.20;0.20;;;;;;;;;;4998393;28;20053;-86
2023/10/13 15:41:52;;;;;;;1.27;1.05;;;;;;;;;;4998325;28;20380;-84
2023/10/13 15:44:25;;;;;;;0.50;0.50;;;;;;;;;;4977646;28;20030;-84
2023/10/13 15:47:18;;;;;;;0.25;0.25;;;;;;;;;;4989617;28;20073;-84
2023/10/13 15:49:53;;;;;;;;;;;;;;;;;;4983875;28;20137;-88
2023/10/13 15:52:19;;;;;;;0.20;0.10;;;;;;;;;;4986196;28;19917;-83
2023/10/13 15:54:45;;;;;;;0.22;0.22;;;;;;;;;;4980538;28;20042;-87
2023/10/13 15:57:16;;;;;;;0.30;0.28;;;;;;;;;;4999906;28;20052;-87
2023/10/13 15:59:46;;;;;;;2.67;1.27;;;;;;;;;;4990243;28;20049;-84
2023/10/13 16:02:19;;;;;;;0.77;0.77;;;;;;;;;;5001735;28;20042;-83
2023/10/13 16:05:06;;;;;;;0.98;0.98;;;;;;;;;;5003421;28;20128;-84
2023/10/13 16:07:35;;;;;;;0.30;0.28;;;;;;;;;;5002077;28;20050;-83
2023/10/13 16:10:01;;;;;;;0.32;0.32;;;;;;;;;;5004546;28;20053;-84
2023/10/13 16:12:28;;;;;;;0.40;0.40;;;;;;;;;;5001081;28;20038;-84
2023/10/13 16:14:58;;;;;;;19.42;0.50;;;;;;;;;;4980309;28;20081;-89
2023/10/13 16:17:28;;;;;;;0.20;0.10;;;;;;;;;;4989091;28;20042;-85
2023/10/13 16:19:57;;;;;;;0.20;0.10;;;;;;;;;;4986862;28;20042;-85
2023/10/13 16:22:26;;;;;;;0.73;0.73;;;;;;;;;;4999013;28;20046;-87
2023/10/13 16:24:57;;;;;;;0.20;0.10;;;;;;;;;;5000716;28;20096;-88
2023/10/13 16:27:30;;;;;;;0.20;0.13;;;;;;;;;;4996383;28;20049;-85
2023/10/13 16:30:03;;;;;;;0.30;0.30;;;;;;;;;;4983070;28;20038;-84
2023/10/13 16:32:30;;;;;;;0.20;0.20;;;;;;;;;;4995410;28;20100;-84
2023/10/13 16:34:57;;;;;;;1.10;0.40;;;;;;;;;;4983850;28;20104;-85
2023/10/13 16:37:23;;;;;;;0.20;0.05;;;;;;;;;;4981634;28;20040;-86
2023/10/13 16:39:53;;;;;;;0.20;0.20;;;;;;;;;;4981414;28;20050;-85
2023/10/13 16:42:22;;;;;;;0.20;0.20;;;;;;;;;;4996509;28;20117;-87
2023/10/13 16:44:50;;;;;;;0.20;0.10;;;;;;;;;;5005509;28;20057;-86
2023/10/13 16:47:29;;;;;;;0.55;0.50;;;;;;;;;;4981906;28;20050;-85
2023/10/13 16:50:11;;;;;;;0.20;0.10;;;;;;;;;;4999696;28;20065;-88
2023/10/13 16:52:40;;;;;;;0.20;0.10;;;;;;;;;;4995889;28;20049;-85
2023/10/13 16:55:08;;;;;;;0.20;0.10;;;;;;;;;;4998481;28;20085;-88
2023/10/13 16:57:52;;;;;;;0.50;0.13;;;;;;;;;;4996657;28;20052;-86
2023/10/13 17:00:52;;;;;;;0.20;0.10;;;;;;;;;;4982426;28;20081;-85
2023/10/13 17:03:27;;;;;;;;;;;;;;;;;;;;;
2023/10/13 17:06:02;;;;;;;0.30;0.20;;;;;;;;;;4995077;28;20438;-86
2023/10/13 17:08:32;;;;;;;0.93;0.52;;;;;;;;;;4997790;28;20053;-85
2023/10/13 17:11:21;;;;;;;0.63;0.63;;;;;;;;;;5000500;28;20115;-85
2023/10/13 17:13:53;;;;;;;0.30;0.30;;;;;;;;;;4992493;28;20049;-89
2023/10/13 17:16:20;;;;;;;0.20;0.10;;;;;;;;;;4973314;28;20042;-88
2023/10/13 17:18:50;;;;;;;1.35;1.00;;;;;;;;;;4975199;28;20037;-86
2023/10/13 17:21:17;;;;;;;0.85;0.65;;;;;;;;;;4994547;28;20177;-85
2023/10/13 17:23:44;;;;;;;0.50;0.20;;;;;;;;;;4977503;28;20467;-85
2023/10/13 17:26:12;;;;;;;1.75;0.95;;;;;;;;;;4981117;28;20042;-83
2023/10/13 17:28:49;;;;;;;0.47;0.47;;;;;;;;;;5006310;28;20038;-87
2023/10/13 17:31:26;;;;;;;0.55;0.47;;;;;;;;;;4986724;28;20073;-85
2023/10/13 17:34:03;;;;;;;0.20;0.10;;;;;;;;;;4995807;28;20061;-85
2023/10/13 17:36:34;;;;;;;0.20;0.10;;;;;;;;;;5000852;28;20050;-86
2023/10/13 17:39:09;;;;;;;3.83;1.35;;;;;;;;;;5006255;28;20040;-87
2023/10/13 17:41:35;;;;;;;8.48;1.55;;;;;;;;;;4993953;28;20084;-86
2023/10/13 17:44:07;;;;;;;0.25;0.10;;;;;;;;;;4996773;28;20045;-87
2023/10/13 17:46:33;;;;;;;0.40;0.40;;;;;;;;;;4988630;28;20048;-86
2023/10/13 17:49:03;;;;;;;0.20;0.20;;;;;;;;;;4988578;28;20037;-84
2023/10/13 17:51:32;;;;;;;0.30;0.20;;;;;;;;;;5004138;28;20038;-85
2023/10/13 17:53:59;;;;;;;0.20;0.10;;;;;;;;;;5001422;28;20466;-84
2023/10/13 17:56:25;;;;;;;0.30;0.20;;;;;;;;;;5007634;28;20056;-85
2023/10/13 17:58:53;;;;;;;0.57;0.52;;;;;;;;;;5000738;28;20078;-89
2023/10/13 18:01:34;;;;;;;0.20;0.10;;;;;;;;;;5001218;28;20042;-87
2023/10/13 18:04:09;;;;;;;0.40;0.35;;;;;;;;;;4997501;28;20103;-88
2023/10/13 18:06:45;;;;;;;0.20;0.20;;;;;;;;;;4992127;28;20037;-87
2023/10/13 18:09:23;;;;;;;1.10;0.95;;;;;;;;;;4998976;28;20046;-87
2023/10/13 18:12:04;;;;;;;0.20;0.20;;;;;;;;;;5002037;28;20160;-88
2023/10/13 18:14:45;;;;;;;0.45;0.45;;;;;;;;;;5004497;28;20509;-86
2023/10/13 18:17:15;;;;;;;0.20;0.10;;;;;;;;;;5001011;28;20045;-88
2023/10/13 18:19:43;;;;;;;0.30;0.20;;;;;;;;;;5008082;28;20050;-86
2023/10/13 18:22:24;;;;;;;1.38;1.20;;;;;;;;;;5008902;28;20117;-90
2023/10/13 18:24:53;;;;;;;0.20;0.10;;;;;;;;;;5004256;28;20095;-86
2023/10/13 18:27:19;;;;;;;1.20;0.73;;;;;;;;;;5007276;28;20033;-85
2023/10/13 18:29:55;;;;;;;0.35;0.35;;;;;;;;;;4992944;28;20450;-87
2023/10/13 18:32:24;;;;;;;0.30;0.30;;;;;;;;;;5004105;28;20078;-86
2023/10/13 18:34:50;;;;;;;0.73;0.60;;;;;;;;;;4989066;28;20069;-85
2023/10/13 18:37:22;;;;;;;0.32;0.32;;;;;;;;;;5007749;28;20045;-86
2023/10/13 18:39:54;;;;;;;0.85;0.73;;;;;;;;;;5001870;28;20124;-87
2023/10/13 18:42:23;;;;;;;0.68;0.30;;;;;;;;;;5008256;28;20153;-87
2023/10/13 18:47:57;;;;;;;0.20;0.10;;;;;;;;;;5153227;27;20187;-85
2023/10/13 18:50:32;;;;;;;0.50;0.45;;;;;;;;;;5118581;27;20032;-88
2023/10/13 18:52:59;;;;;;;0.38;0.38;;;;;;;;;;5111379;28;20043;-84
2023/10/13 18:55:34;;;;;;;0.43;0.43;;;;;;;;;;5111894;27;20039;-87
2023/10/13 18:58:00;;;;;;;0.55;0.55;;;;;;;;;;5135293;27;20577;-83
2023/10/13 19:00:33;;;;;;;0.32;0.32;;;;;;;;;;5128343;27;20078;-84
2023/10/13 19:03:16;;;;;;;0.45;0.40;;;;;;;;;;5117976;27;20039;-84
2023/10/13 19:05:51;;;;;;;1.98;1.27;;;;;;;;;;5083272;27;20051;-83
2023/10/13 19:08:37;;;;;;;1.85;1.23;;;;;;;;;;5100963;28;20483;-80
2023/10/13 19:11:25;;;;;;;0.30;0.25;;;;;;;;;;5103889;27;20038;-86
2023/10/13 19:17:26;;;;;;;0.80;0.80;;;;;;;;;;5064886;28;20157;-87
2023/10/13 19:20:08;;;;;;;0.20;0.10;;;;;;;;;;5058306;28;20053;-87
2023/10/13 19:22:40;;;;;;;0.20;0.10;;;;;;;;;;5107215;27;20046;-85
2023/10/13 19:25:38;;;;;;;0.20;0.10;;;;;;;;;;5129663;27;20039;-87
2023/10/13 19:28:16;;;;;;;1.38;1.20;;;;;;;;;;5106602;28;20085;-86
2023/10/13 19:30:45;;;;;;;1.58;0.93;;;;;;;;;;5128178;27;20042;-83
2023/10/13 19:33:24;;;;;;;0.20;0.20;;;;;;;;;;5099989;28;20047;-84
2023/10/13 19:35:51;;;;;;;0.40;0.40;;;;;;;;;;5101860;27;20035;-82
2023/10/13 19:38:19;;;;;;;0.20;0.10;;;;;;;;;;5133376;27;20047;-84
2023/10/13 19:40:45;;;;;;;0.30;0.30;;;;;;;;;;5083376;28;20047;-84
2023/10/13 19:43:26;;;;;;;0.85;0.85;;;;;;;;;;5115091;27;20039;-84